createdAt,value
2018-02-08T00:28:45.061Z,0.50
2018-02-08T01:47:02.810Z,0.70
2018-02-08T01:52:06.139Z,0.50
2018-02-08T02:02:38.969Z,0.60
2018-02-08T02:07:42.764Z,0.60
2018-02-08T02:12:48.846Z,0.50
2018-02-08T02:17:52.726Z,0.50
2018-02-08T02:34:14.651Z,0.60
2018-02-08T03:07:29.695Z,0.60
2018-02-08T03:18:03.591Z,0.60
2018-02-08T03:23:07.042Z,0.40
2018-02-08T03:28:10.970Z,0.40
2018-02-08T03:33:18.547Z,0.20
2018-02-08T03:43:59.588Z,-0.10
2018-02-08T03:49:03.911Z,-0.20
2018-02-08T03:54:09.159Z,-0.20
2018-02-08T03:59:15.831Z,-0.30
2018-02-08T04:15:35.511Z,-0.60
2018-02-08T04:31:55.121Z,-0.70
2018-02-08T04:36:59.134Z,-0.80
2018-02-08T04:42:13.770Z,-0.90
2018-02-08T04:58:32.720Z,-1.10
2018-02-08T05:03:35.845Z,-1.10
2018-02-08T05:08:38.882Z,-1.10
2018-02-08T05:13:41.970Z,-1.10
2018-02-08T05:18:45.823Z,-1.20
2018-02-08T05:23:49.245Z,-1.20
2018-02-08T05:28:52.706Z,-1.30
2018-02-08T05:33:56.054Z,-1.30
2018-02-08T05:39:00.495Z,-1.30
2018-02-08T05:44:04.478Z,-1.40
2018-02-08T05:49:09.278Z,-1.30
2018-02-08T05:54:12.344Z,-1.40
2018-02-08T05:59:15.288Z,-1.40
2018-02-08T06:04:25.664Z,-1.40
2018-02-08T06:09:31.834Z,-1.50
2018-02-08T06:14:34.740Z,-1.50
2018-02-08T06:19:37.600Z,-1.50
2018-02-08T06:24:41.351Z,-1.60
2018-02-08T06:29:45.123Z,-1.50
2018-02-08T06:34:51.195Z,-1.50
2018-02-08T06:39:57.169Z,-1.50
2018-02-08T06:45:02.419Z,-1.50
2018-02-08T06:50:06.369Z,-1.80
2018-02-08T06:55:09.186Z,-1.80
2018-02-08T07:00:12.310Z,-1.80
2018-02-08T07:05:15.191Z,-1.70
2018-02-08T07:10:18.107Z,-1.70
2018-02-08T07:15:22.063Z,-1.70
2018-02-08T07:20:27.883Z,-1.70
2018-02-08T07:25:30.666Z,-1.70
2018-02-08T07:30:33.524Z,-1.70
2018-02-08T07:35:36.449Z,-1.60
2018-02-08T07:40:39.272Z,-1.50
2018-02-08T07:45:43.046Z,-1.40
2018-02-08T07:50:47.543Z,-1.20
2018-02-08T07:55:50.400Z,-1.30
2018-02-08T08:00:54.244Z,-1.10
2018-02-08T08:05:57.206Z,-1.20
2018-02-08T08:11:00.083Z,-0.90
2018-02-08T08:16:03.102Z,-0.70
2018-02-08T08:21:05.937Z,-0.30
2018-02-08T08:26:08.831Z,0.00
2018-02-08T08:31:12.585Z,0.20
2018-02-08T08:36:15.415Z,0.50
2018-02-08T08:41:18.286Z,0.60
2018-02-08T08:46:21.138Z,0.70
2018-02-08T08:51:23.967Z,1.00
2018-02-08T08:56:27.810Z,1.10
2018-02-08T09:01:32.613Z,1.30
2018-02-08T09:06:35.452Z,1.60
2018-02-08T09:11:38.422Z,1.80
2018-02-08T09:16:41.492Z,1.80
2018-02-08T09:21:46.743Z,2.10
2018-02-08T09:26:50.149Z,2.40
2018-02-08T09:31:55.319Z,2.60
2018-02-08T09:36:59.200Z,2.90
2018-02-08T09:42:02.773Z,2.80
2018-02-08T09:47:07.337Z,3.20
2018-02-08T09:52:11.259Z,3.40
2018-02-08T09:57:15.746Z,3.80
2018-02-08T10:02:21.658Z,4.10
2018-02-08T10:07:25.491Z,4.40
2018-02-08T10:12:29.312Z,4.70
2018-02-08T10:17:34.277Z,5.40
2018-02-08T10:22:38.047Z,5.70
2018-02-08T10:27:43.058Z,6.00
2018-02-08T10:32:46.736Z,6.20
2018-02-08T10:37:50.481Z,6.00
2018-02-08T10:42:54.191Z,6.10
2018-02-08T10:47:57.803Z,6.30
2018-02-08T10:53:01.626Z,6.20
2018-02-08T10:58:05.346Z,6.30
2018-02-08T11:03:09.501Z,6.60
2018-02-08T11:08:28.954Z,6.40
2018-02-08T11:13:43.627Z,6.00
2018-02-08T11:18:47.353Z,5.90
2018-02-08T11:23:52.594Z,6.30
2018-02-08T11:40:13.748Z,6.10
2018-02-08T11:45:16.931Z,6.70
2018-02-08T11:50:26.649Z,6.60
2018-02-08T12:01:56.964Z,6.10
2018-02-08T12:07:02.748Z,6.10
2018-02-08T12:12:25.485Z,6.30
2018-02-08T12:34:28.792Z,7.00
2018-02-08T12:45:16.708Z,7.80
2018-02-08T12:55:49.540Z,7.60
2018-02-08T13:06:31.802Z,7.10
2018-02-08T14:02:25.797Z,7.40
2018-02-08T14:35:41.735Z,5.90
2018-02-08T14:40:48.947Z,5.90
2018-02-08T14:46:03.301Z,5.50
2018-02-08T14:51:12.317Z,5.00
2018-02-08T14:56:19.109Z,4.90
2018-02-08T15:01:25.123Z,4.90
2018-02-08T15:06:30.174Z,4.70
2018-02-08T15:11:34.302Z,4.10
2018-02-08T15:16:39.057Z,3.80
2018-02-08T15:21:48.284Z,3.80
2018-02-08T15:26:54.031Z,3.40
2018-02-08T15:32:06.694Z,3.10
2018-02-08T15:42:48.936Z,2.80
2018-02-08T15:47:53.692Z,2.80
2018-02-08T15:52:57.386Z,2.80
2018-02-08T15:58:01.130Z,2.80
2018-02-08T16:03:04.665Z,2.60
2018-02-08T16:08:08.544Z,2.40
2018-02-08T16:13:12.222Z,2.30
2018-02-08T16:18:16.904Z,2.00
2018-02-08T16:23:21.467Z,1.80
2018-02-08T16:28:25.464Z,1.60
2018-02-08T16:33:29.135Z,1.40
2018-02-08T16:38:33.077Z,1.30
2018-02-08T16:43:36.920Z,1.20
2018-02-08T16:48:41.463Z,1.20
2018-02-08T17:39:59.423Z,1.00
2018-02-08T17:45:03.066Z,0.50
2018-02-08T17:50:07.100Z,0.40
2018-02-08T17:55:11.122Z,0.50
2018-02-08T18:05:51.675Z,0.30
2018-02-08T18:11:00.415Z,0.30
2018-02-08T18:16:03.260Z,0.20
2018-02-08T18:21:07.060Z,0.10
2018-02-08T18:26:09.920Z,0.20
2018-02-08T18:31:12.814Z,0.10
2018-02-08T18:36:16.662Z,0.10
2018-02-08T18:41:19.496Z,0.10
2018-02-08T18:46:22.439Z,0.00
2018-02-08T18:51:26.258Z,0.00
2018-02-08T18:56:29.246Z,-0.10
2018-02-08T19:01:37.080Z,-0.10
2018-02-08T19:06:46.536Z,-0.30
2018-02-08T19:11:55.201Z,-0.20
2018-02-08T19:17:05.589Z,-0.30
2018-02-08T19:22:12.176Z,-0.30
2018-02-08T19:27:19.246Z,-0.40
2018-02-08T19:32:30.324Z,-0.50
2018-02-08T19:37:37.302Z,-0.60
2018-02-08T19:42:45.818Z,-0.60
2018-02-08T19:47:52.561Z,-0.70
2018-02-08T19:53:03.918Z,-0.80
2018-02-08T19:58:06.879Z,-0.90
2018-02-08T20:03:09.722Z,-0.90
2018-02-08T20:08:12.549Z,-0.90
2018-02-08T20:13:16.827Z,-1.00
2018-02-08T20:18:19.634Z,-1.20
2018-02-08T20:23:22.624Z,-1.30
2018-02-08T20:28:26.746Z,-1.30
2018-02-08T20:33:35.760Z,-1.20
2018-02-08T20:38:38.683Z,-1.30
2018-02-08T20:43:42.837Z,-1.40
2018-02-08T20:48:47.233Z,-1.50
2018-02-08T20:53:50.047Z,-1.50
2018-02-08T20:58:53.560Z,-1.60
2018-02-08T21:03:56.419Z,-1.60
2018-02-08T21:08:59.375Z,-1.70
2018-02-08T21:14:04.957Z,-1.80
2018-02-08T21:19:08.119Z,-1.90
2018-02-08T21:24:11.368Z,-1.80
2018-02-08T21:29:14.231Z,-1.90
2018-02-08T21:34:18.121Z,-2.00
2018-02-08T21:39:21.019Z,-2.10
2018-02-08T21:44:23.828Z,-2.10
2018-02-08T21:49:26.652Z,-2.10
2018-02-08T21:54:36.424Z,-2.10
2018-02-08T21:59:39.273Z,-2.20
2018-02-08T22:04:42.976Z,-2.20
2018-02-08T22:09:47.427Z,-2.20
2018-02-08T22:14:50.390Z,-2.40
2018-02-08T22:19:54.151Z,-2.40
2018-02-08T22:25:00.812Z,-2.50
2018-02-08T22:30:03.679Z,-2.50
2018-02-08T22:35:06.560Z,-2.60
2018-02-08T22:40:10.413Z,-2.60
2018-02-08T22:45:14.138Z,-2.60
2018-02-08T22:50:17.948Z,-2.70
2018-02-08T22:55:20.772Z,-2.70
2018-02-08T23:00:24.687Z,-2.80
2018-02-08T23:05:27.435Z,-2.90
2018-02-08T23:10:30.262Z,-2.90
2018-02-08T23:15:34.017Z,-2.90
2018-02-08T23:20:37.712Z,-2.90
2018-02-08T23:25:40.687Z,-3.00
2018-02-08T23:30:43.730Z,-3.00
2018-02-08T23:35:46.770Z,-3.10
2018-02-08T23:40:49.527Z,-3.10
2018-02-08T23:45:52.321Z,-3.10
2018-02-08T23:50:56.626Z,-3.20
2018-02-08T23:56:00.035Z,-3.20
